< < Back
Terminal Aerodrome Forecast


Current Version              Previous Versions:   1  2  3  4  5  6  7  8  9  

Terminal Aerodrome Forecast

423
FTUS42 KMLB 270905 AAA
TAFMCO
TAF AMD
KMCO 270905Z 2709/2806 VRB03KT P6SM FEW250
     FM271500 VRB04KT P6SM SCT035 SCT250
     FM272000 11008KT P6SM VCTS SCT035CB BKN080
     FM280000 14005KT P6SM FEW080 SCT250=

Latest METAR

151
SAUS70 KWBC 271100 RRD
MTRMCO
METAR KMCO 271053Z 30004KT 8SM FEW120 FEW250 24/22 A3007 RMK AO2 SLP181
T02390217


USA.gov is the U.S. government's official web portal to all federal, state and local government web resources and services.